createdAt,value
2022-12-26T00:02:41.401Z,14.73515
2022-12-26T00:07:43.048Z,8.9748
2022-12-26T00:12:44.876Z,4.6545
2022-12-26T00:17:46.591Z,1.16185
2022-12-26T00:22:48.457Z,0.88715
2022-12-26T00:27:50.138Z,0
2022-12-26T00:32:52.040Z,0
2022-12-26T00:37:53.923Z,0
2022-12-26T00:42:55.582Z,0
2022-12-26T00:47:57.267Z,0
2022-12-26T00:52:59.061Z,0
2022-12-26T00:58:00.721Z,0
2022-12-26T01:03:02.534Z,0
2022-12-26T01:08:22.509Z,0
2022-12-26T01:13:26.111Z,0
2022-12-26T01:18:27.869Z,0
2022-12-26T01:23:29.585Z,0
2022-12-26T01:28:31.265Z,0
2022-12-26T01:33:32.909Z,0
2022-12-26T01:38:34.778Z,0
2022-12-26T01:43:36.664Z,0
2022-12-26T01:48:38.462Z,0
2022-12-26T01:53:40.183Z,0
2022-12-26T01:58:42.663Z,0
2022-12-26T02:03:44.342Z,0
2022-12-26T02:08:46.052Z,0
2022-12-26T02:13:47.778Z,0
2022-12-26T02:18:49.366Z,0
2022-12-26T02:23:51.030Z,0
2022-12-26T02:28:52.661Z,0
2022-12-26T02:33:54.277Z,0
2022-12-26T02:38:55.910Z,0
2022-12-26T02:48:58.136Z,0
2022-12-26T02:53:59.869Z,0
2022-12-26T02:59:01.551Z,0
2022-12-26T03:04:03.325Z,0
2022-12-26T03:09:05.056Z,0
2022-12-26T03:14:06.769Z,0
2022-12-26T03:19:08.411Z,0
2022-12-26T03:24:10.075Z,0
2022-12-26T03:29:17.127Z,0
2022-12-26T03:34:20.620Z,0
2022-12-26T03:39:22.210Z,0
2022-12-26T03:44:23.841Z,0
2022-12-26T03:49:25.498Z,0
2022-12-26T03:54:27.161Z,0
2022-12-26T03:59:28.858Z,0
2022-12-26T04:04:30.561Z,0
2022-12-26T04:09:33.356Z,0
2022-12-26T04:14:35.026Z,0
2022-12-26T04:19:36.691Z,0
2022-12-26T04:24:38.344Z,0
2022-12-26T04:29:40.069Z,0
2022-12-26T04:34:41.691Z,0
2022-12-26T04:39:43.391Z,0
2022-12-26T04:44:45.125Z,0
2022-12-26T04:49:46.779Z,0
2022-12-26T04:54:48.957Z,0
2022-12-26T04:59:51.758Z,0
2022-12-26T05:04:53.406Z,0
2022-12-26T05:09:55.008Z,0
2022-12-26T05:14:56.643Z,0
2022-12-26T05:19:58.297Z,0
2022-12-26T05:25:00.098Z,0
2022-12-26T05:30:02.055Z,0
2022-12-26T05:35:03.855Z,0
2022-12-26T05:40:05.621Z,0
2022-12-26T05:45:07.243Z,0
2022-12-26T05:50:08.889Z,0
2022-12-26T05:55:10.654Z,0
2022-12-26T06:00:12.429Z,0
2022-12-26T06:05:14.138Z,0
2022-12-26T06:10:15.833Z,0
2022-12-26T06:15:17.537Z,0
2022-12-26T06:20:19.141Z,0
2022-12-26T06:25:20.868Z,0
2022-12-26T06:30:22.794Z,0
2022-12-26T06:35:24.425Z,0
2022-12-26T06:40:26.076Z,0
2022-12-26T06:45:27.675Z,0
2022-12-26T06:50:29.342Z,0
2022-12-26T06:55:31.019Z,0
2022-12-26T07:00:32.852Z,0
2022-12-26T07:05:34.603Z,0
2022-12-26T07:10:36.268Z,0
2022-12-26T07:15:37.988Z,0
2022-12-26T07:20:39.704Z,0
2022-12-26T07:25:41.356Z,0
2022-12-26T07:30:43.012Z,0
2022-12-26T07:35:44.727Z,0
2022-12-26T07:40:46.374Z,0
2022-12-26T07:45:48.176Z,0
2022-12-26T07:50:49.895Z,0
2022-12-26T07:55:51.573Z,0
2022-12-26T08:00:53.324Z,0
2022-12-26T08:05:55.086Z,0
2022-12-26T08:10:56.750Z,0
2022-12-26T08:15:58.442Z,0
2022-12-26T08:21:00.121Z,0
2022-12-26T08:26:03.343Z,0
2022-12-26T08:31:04.972Z,0
2022-12-26T08:36:06.821Z,0
2022-12-26T08:41:08.469Z,0
2022-12-26T08:46:10.253Z,0
2022-12-26T08:51:11.896Z,0
2022-12-26T08:56:13.553Z,0
2022-12-26T09:01:15.362Z,0
2022-12-26T09:06:17.059Z,0
2022-12-26T09:11:18.675Z,0
2022-12-26T09:16:20.357Z,0
2022-12-26T09:21:22.057Z,0
2022-12-26T09:26:23.718Z,0
2022-12-26T09:31:25.425Z,0
2022-12-26T09:36:27.139Z,0
2022-12-26T09:41:28.766Z,0
2022-12-26T09:46:30.515Z,0
2022-12-26T09:51:32.205Z,0
2022-12-26T09:57:01.706Z,0
2022-12-26T10:02:04.747Z,0
2022-12-26T10:07:06.591Z,0
2022-12-26T10:12:08.247Z,0
2022-12-26T10:17:09.908Z,0
2022-12-26T10:22:11.815Z,0
2022-12-26T10:27:13.502Z,0
2022-12-26T10:32:15.214Z,0
2022-12-26T10:37:16.919Z,0
2022-12-26T10:42:18.671Z,0
2022-12-26T10:47:20.580Z,0
2022-12-26T10:52:22.211Z,0
2022-12-26T10:57:23.830Z,0
2022-12-26T11:02:25.734Z,0
2022-12-26T11:07:27.413Z,0
2022-12-26T11:12:29.076Z,0
2022-12-26T11:17:30.858Z,0
2022-12-26T11:22:32.470Z,0
2022-12-26T11:27:34.099Z,0
2022-12-26T11:32:35.755Z,0
2022-12-26T11:37:37.364Z,0
2022-12-26T11:42:38.987Z,0
2022-12-26T11:47:40.621Z,0
2022-12-26T11:52:42.249Z,0
2022-12-26T11:57:44.086Z,0
2022-12-26T12:02:47.430Z,0
2022-12-26T12:07:49.167Z,0
2022-12-26T12:12:50.802Z,0
2022-12-26T12:17:52.468Z,0
2022-12-26T12:22:54.171Z,0
2022-12-26T12:27:55.842Z,0
2022-12-26T12:32:57.551Z,0
2022-12-26T12:37:59.245Z,0
2022-12-26T12:43:00.998Z,0
2022-12-26T12:48:02.923Z,0
2022-12-26T12:53:04.757Z,0
2022-12-26T12:58:06.455Z,0
2022-12-26T13:03:08.053Z,0
2022-12-26T13:08:09.719Z,0
2022-12-26T13:13:11.417Z,0
2022-12-26T13:18:13.361Z,0
2022-12-26T13:23:15.186Z,0
2022-12-26T13:28:16.846Z,0
2022-12-26T13:33:18.469Z,0
2022-12-26T13:38:20.090Z,0
2022-12-26T13:43:21.734Z,0
2022-12-26T13:48:23.427Z,0
2022-12-26T13:53:25.092Z,0
2022-12-26T13:58:26.757Z,0
2022-12-26T14:03:28.557Z,0
2022-12-26T14:08:30.490Z,0
2022-12-26T14:13:32.118Z,0
2022-12-26T14:18:34.150Z,0
2022-12-26T14:23:35.744Z,0
2022-12-26T14:28:37.330Z,0
2022-12-26T14:33:38.948Z,0
2022-12-26T14:38:40.598Z,0
2022-12-26T14:43:43.603Z,0
2022-12-26T14:48:45.267Z,0
2022-12-26T14:53:46.972Z,0
2022-12-26T14:58:49.983Z,0
2022-12-26T15:03:51.655Z,0
2022-12-26T15:08:53.307Z,0
2022-12-26T15:13:55.021Z,0
2022-12-26T15:18:56.708Z,0
2022-12-26T15:23:58.442Z,0
2022-12-26T15:29:00.141Z,0.88715
2022-12-26T15:34:01.746Z,1.16185
2022-12-26T15:39:03.378Z,2.3237
2022-12-26T15:44:05.022Z,5.20745
2022-12-26T15:49:06.631Z,7.9485
2022-12-26T15:54:08.304Z,10.4149
2022-12-26T15:59:09.963Z,14.73515
2022-12-26T16:04:11.566Z,18.40515
2022-12-26T16:09:13.198Z,18.5896
2022-12-26T16:14:14.866Z,24.02995
2022-12-26T16:19:16.499Z,21.70625
2022-12-26T16:24:18.179Z,34.4866
2022-12-26T16:29:20.058Z,48.4288
2022-12-26T16:34:21.748Z,50.32845
2022-12-26T16:39:23.424Z,59.0699
2022-12-26T16:44:29.991Z,61.3936
2022-12-26T16:49:32.616Z,67.20285
2022-12-26T16:54:34.294Z,81.14505
2022-12-26T16:59:36.003Z,75.0962
2022-12-26T17:04:37.759Z,94.10985
2022-12-26T17:09:39.415Z,117.1624
2022-12-26T17:14:41.040Z,139.422
2022-12-26T17:19:42.752Z,133.24385
2022-12-26T17:24:44.412Z,136.91385
2022-12-26T17:29:46.058Z,134.4057
2022-12-26T17:34:47.740Z,120.8324
2022-12-26T17:39:49.393Z,156.6653
2022-12-26T17:44:51.064Z,167.3064
2022-12-26T17:49:52.757Z,199.04525
2022-12-26T17:54:54.452Z,220.93595
2022-12-26T17:59:56.099Z,226.32115
2022-12-26T18:04:57.711Z,256.3448
2022-12-26T18:09:59.566Z,268.75625
2022-12-26T18:15:02.323Z,224.4215
2022-12-26T18:20:04.300Z,211.64115
2022-12-26T18:25:06.166Z,214.94225
2022-12-26T18:30:07.850Z,247.47405
2022-12-26T18:35:09.472Z,197.5145
2022-12-26T18:40:11.127Z,195.7993
2022-12-26T18:45:12.754Z,201.793
2022-12-26T18:50:14.422Z,207.60225
2022-12-26T18:55:16.078Z,223.0752
2022-12-26T19:00:17.722Z,261.41625
2022-12-26T19:05:19.561Z,309.97435
2022-12-26T19:10:21.212Z,294.1325
2022-12-26T19:15:23.109Z,278.844
2022-12-26T19:20:24.764Z,285.8151
2022-12-26T19:25:26.417Z,326.0558
2022-12-26T19:30:28.951Z,515.32705
2022-12-26T19:35:32.905Z,595.624
2022-12-26T19:40:34.593Z,663.19575
2022-12-26T19:45:36.249Z,706.922
2022-12-26T19:50:37.976Z,742.5153
2022-12-26T19:55:39.656Z,774.62305
2022-12-26T20:00:41.311Z,898.16705
2022-12-26T20:05:43.083Z,676.05025
2022-12-26T20:10:44.741Z,483.9571
2022-12-26T20:15:46.388Z,496.12895
2022-12-26T20:20:48.045Z,505.42375
2022-12-26T20:25:49.721Z,783.1249
2022-12-26T20:30:51.555Z,916.5722
2022-12-26T20:35:53.478Z,1046.4788
2022-12-26T20:40:55.119Z,984.03365
2022-12-26T20:45:56.753Z,751.27575
2022-12-26T20:50:58.441Z,504.8894
2022-12-26T20:56:00.335Z,482.44535
2022-12-26T21:01:02.138Z,553.63195
2022-12-26T21:06:03.935Z,757.9521
2022-12-26T21:11:05.737Z,654.2337
2022-12-26T21:16:09.941Z,737.59215
2022-12-26T21:21:11.944Z,890.60645
2022-12-26T21:26:13.831Z,851.6569
2022-12-26T21:31:15.530Z,758.5796
2022-12-26T21:36:17.295Z,545.6283
2022-12-26T21:41:19.067Z,455.66765
2022-12-26T21:46:20.805Z,499.70765
2022-12-26T21:51:22.489Z,396.284
2022-12-26T21:56:24.569Z,311.1552
2022-12-26T22:01:26.435Z,354.4574
2022-12-26T22:06:28.147Z,390.18
2022-12-26T22:11:29.799Z,313.3686
2022-12-26T22:16:31.457Z,258.63235
2022-12-26T22:21:33.065Z,252.26975
2022-12-26T22:26:34.715Z,254.409
2022-12-26T22:31:36.455Z,245.79685
2022-12-26T22:36:38.165Z,275.02755
2022-12-26T22:41:39.890Z,229.7154
2022-12-26T22:46:41.630Z,203.97025
2022-12-26T22:51:43.509Z,134.1851
2022-12-26T22:56:45.133Z,131.3632
2022-12-26T23:01:46.876Z,95.401
2022-12-26T23:06:48.610Z,96.56285
2022-12-26T23:11:50.286Z,89.83135
2022-12-26T23:16:51.969Z,76.0736
2022-12-26T23:21:53.589Z,80.29695
2022-12-26T23:26:55.232Z,68.67845
2022-12-26T23:31:56.870Z,62.5003
2022-12-26T23:36:58.498Z,44.1503
2022-12-26T23:42:00.132Z,34.67105
2022-12-26T23:47:01.808Z,26.35365
2022-12-26T23:52:03.544Z,14.9196
2022-12-26T23:57:05.404Z,12.74215
